Latest Weather Observations for Munglinup West

IDW60801

Issued at 12:05 pm WST Thursday 27 November 2014 (issued every 30 minutes, with the page automatically refreshed every 10 minutes)

About weather observations | Map of weather stations | Latest weather observations for WA | Other Formats
Station Details ID: 012044 Name: MUNGLINUP WEST Lat: -33.55 Lon: 120.70 Height: 220.0 m
Data from the previous 72 hours. | See also: Recent months at Munglinup West
Date/Time
WST
Temp
°C
App
Temp
°C
Dew
Point
Rel
Hum
%
Delta-T
°C
Wind Press
QNH
hPa
Press
MSL
hPa
Rain
since 9 am
mm
Dir
 
Spd
km/h
Gust
km/h
Spd
kts
Gust
kts
27/12:00pm 21.3 18.6 13.0 59 4.8 NE 19 24 10 13 1014.5 1014.0 0.2
27/11:30am 22.2 19.7 14.1 60 4.8 NE 20 30 11 16 1014.8 1014.3 0.2
27/11:00am 21.2 19.9 14.8 67 3.8 ENE 15 24 8 13 1015.3 1014.7 0.2
27/10:30am 18.7 17.0 14.8 78 2.3 NE 17 28 9 15 1015.9 1015.3 0.2
27/10:00am 17.9 16.2 14.6 81 1.9 ENE 17 22 9 12 1015.7 1015.1 0.2
27/09:30am 17.3 15.0 14.0 81 1.9 NE 19 26 10 14 1016.2 1015.6 0.0
27/09:00am 18.0 15.6 13.7 76 2.5 NE 19 26 10 14 1016.3 1015.7 0.2
27/08:30am 17.9 16.5 14.6 81 1.9 ENE 15 19 8 10 1015.8 1015.2 0.2
27/08:00am 17.1 15.6 13.2 78 2.2 NNE 13 20 7 11 1016.0 1015.4 0.0
27/07:30am 19.8 17.1 11.8 60 4.5 NNE 17 28 9 15 1015.8 1015.2 0.0
27/07:00am 19.2 15.2 11.7 62 4.2 NE 24 32 13 17 1015.8 1015.2 0.0
27/06:30am 18.2 14.1 11.5 65 3.7 ENE 24 30 13 16 1015.2 1014.6 0.0
27/06:00am 17.2 13.1 11.5 69 3.1 ENE 24 37 13 20 1015.3 1014.7 0.0
27/05:30am 16.8 12.7 11.3 70 3.0 ENE 24 33 13 18 1015.4 1014.8 0.0
27/05:00am 16.8 13.4 11.3 70 3.0 ENE 20 28 11 15 1015.0 1014.4 0.0
27/04:30am 16.8 14.0 11.5 71 2.9 ENE 17 20 9 11 1015.3 1014.7 0.0
27/04:00am 16.9 14.2 11.8 72 2.8 NE 17 26 9 14 1015.2 1014.6 0.0
27/03:30am 16.1 14.5 11.7 75 2.4 NNE 11 17 6 9 1015.8 1015.2 0.0
27/03:00am 15.8 14.1 11.2 74 2.5 NNE 11 13 6 7 1015.7 1015.1 0.0
27/02:30am 16.4 14.3 11.3 72 2.8 N 13 19 7 10 1016.1 1015.5 0.0
27/02:00am 16.8 12.3 11.3 70 3.0 NE 26 39 14 21 1014.1 1013.5 0.0
27/01:30am 17.1 12.2 11.4 69 3.1 ENE 28 43 15 23 1013.7 1013.1 0.0
27/01:00am 17.5 13.1 11.8 69 3.2 ENE 26 37 14 20 1014.1 1013.5 0.0
27/12:30am 17.9 13.6 12.1 69 3.2 ENE 26 35 14 19 1014.2 1013.6 0.0
27/12:00am 18.1 13.9 12.5 70 3.1 ENE 26 37 14 20 1014.4 1013.8 0.0
 
Date/Time
WST
Temp
°C
App
Temp
°C
Dew
Point
Rel
Hum
%
Delta-T
°C
Wind Press
QNH
hPa
Press
MSL
hPa
Rain
since 9 am
mm
Dir
 
Spd
km/h
Gust
km/h
Spd
kts
Gust
kts
26/11:30pm 18.7 14.2 12.7 68 3.4 ENE 28 39 15 21 1014.6 1014.1 0.0
26/11:00pm 19.6 15.2 12.8 65 3.9 ENE 28 37 15 20 1015.1 1014.5 0.0
26/10:30pm 20.4 16.0 12.9 62 4.3 ENE 28 39 15 21 1015.4 1014.8 0.0
26/10:00pm 21.1 17.1 13.0 60 4.7 E 26 39 14 21 1015.6 1015.0 0.0
26/09:30pm 20.1 17.0 13.3 65 3.9 E 22 30 12 16 1015.8 1015.2 0.0
26/09:00pm 19.6 16.7 14.0 70 3.3 E 22 32 12 17 1015.8 1015.2 0.0
26/08:30pm 19.5 15.6 14.3 72 3.0 E 28 37 15 20 1015.4 1014.8 0.0
26/08:00pm 19.3 16.3 14.8 75 2.6 E 24 33 13 18 1015.2 1014.6 0.0
26/07:30pm 19.1 16.5 14.8 76 2.5 E 22 32 12 17 1015.1 1014.5 0.0
26/07:00pm 19.6 17.0 14.8 74 2.8 ESE 22 30 12 16 1014.8 1014.3 0.0
26/06:30pm 20.6 17.3 14.9 70 3.4 ESE 26 32 14 17 1015.0 1014.4 0.0
26/06:00pm 22.0 17.9 14.9 64 4.2 ESE 30 41 16 22 1014.8 1014.3 0.0
26/05:30pm 23.5 19.8 15.0 59 5.1 ESE 28 39 15 21 1014.8 1014.3 0.0
26/05:00pm 25.1 20.6 14.9 53 6.2 ESE 32 44 17 24 1014.6 1014.1 0.0
26/04:30pm 26.2 21.9 14.3 48 7.2 ESE 30 39 16 21 1014.7 1014.2 0.0
26/04:00pm 27.5 22.8 14.2 44 8.0 ESE 32 44 17 24 1015.0 1014.4 0.0
26/03:30pm 28.1 23.3 14.0 42 8.5 SE 32 43 17 23 1015.3 1014.7 0.0
26/03:00pm 31.1 26.2 6.9 22 13.2 E 22 33 12 18 1015.4 1014.8 0.0
26/02:30pm 30.3 25.2 6.2 22 12.9 E 22 35 12 19 1015.6 1015.0 0.0
26/02:00pm 30.6 26.1 7.1 23 12.8 NE 20 28 11 15 1016.0 1015.4 0.0
26/01:30pm 29.9 25.6 7.2 24 12.4 ENE 19 33 10 18 1016.4 1015.8 0.0
26/01:00pm 30.2 26.3 8.6 26 12.0 ENE 19 30 10 16 1016.8 1016.2 0.0
26/12:30pm 30.0 26.3 9.5 28 11.6 ENE 19 30 10 16 1017.5 1016.9 0.0
26/12:00pm 28.6 24.2 8.8 29 11.0 ENE 22 33 12 18 1018.0 1017.4 0.0
26/11:30am 28.1 24.2 9.4 31 10.5 ENE 20 30 11 16 1018.6 1018.1 0.0
26/11:00am 27.0 23.1 9.4 33 9.8 NE 20 33 11 18 1018.8 1018.3 0.0
26/10:30am 26.2 21.8 10.4 37 8.9 ENE 24 33 13 18 1019.1 1018.6 0.0
26/10:00am 24.9 20.8 10.0 39 8.3 ENE 22 33 12 18 1019.5 1019.0 0.0
26/09:30am 23.5 19.0 10.2 43 7.4 ENE 24 33 13 18 1020.3 1019.7 0.0
26/09:00am 21.9 17.6 10.7 49 6.2 NE 24 35 13 19 1020.6 1020.0 0.0
26/08:30am 20.0 15.2 10.4 54 5.2 ENE 26 37 14 20 1020.8 1020.2 0.0
26/08:00am 19.4 14.3 10.7 57 4.7 ENE 28 39 15 21 1020.7 1020.1 0.0
26/07:30am 17.8 12.4 10.9 64 3.8 ENE 30 43 16 23 1020.7 1020.1 0.0
26/07:00am 16.3 11.8 11.5 73 2.6 ENE 26 39 14 21 1020.8 1020.2 0.0
26/06:30am 14.7 11.1 11.7 82 1.6 E 22 32 12 17 1020.7 1020.1 0.0
26/06:00am 12.8 10.4 11.4 91 0.7 ENE 15 22 8 12 1021.0 1020.4 0.0
26/05:30am 11.1 8.8 10.5 96 0.3 NE 13 19 7 10 1021.5 1020.9 0.0
26/05:00am 10.2 8.4 9.6 96 0.3 ENE 9 13 5 7 1021.1 1020.5 0.0
26/04:30am 10.1 6.8 9.5 96 0.3 ENE 17 20 9 11 1020.7 1020.1 0.0
26/04:00am 10.2 6.9 9.4 95 0.4 E 17 24 9 13 1020.2 1019.6 0.0
26/03:30am 10.3 6.6 9.4 94 0.5 E 19 24 10 13 1020.1 1019.5 0.0
26/03:00am 10.6 7.3 9.5 93 0.6 E 17 22 9 12 1020.0 1019.4 0.0
26/02:30am 11.0 7.4 9.8 92 0.6 E 19 24 10 13 1020.3 1019.7 0.0
26/02:00am 11.1 7.8 9.7 91 0.7 E 17 22 9 12 1020.0 1019.4 0.0
26/01:30am 11.4 7.6 9.7 89 0.9 E 20 28 11 15 1020.2 1019.6 0.0
26/01:00am 11.6 7.4 9.7 88 1.0 E 22 30 12 16 1020.3 1019.7 0.0
26/12:30am 11.7 7.5 9.6 87 1.1 ENE 22 28 12 15 1020.8 1020.2 0.0
26/12:00am 12.0 8.2 9.9 87 1.1 E 20 26 11 14 1021.2 1020.6 0.0
 
Date/Time
WST
Temp
°C
App
Temp
°C
Dew
Point
Rel
Hum
%
Delta-T
°C
Wind Press
QNH
hPa
Press
MSL
hPa
Rain
since 9 am
mm
Dir
 
Spd
km/h
Gust
km/h
Spd
kts
Gust
kts
25/11:30pm 12.4 8.3 10.1 86 1.2 E 22 30 12 16 1021.3 1020.7 0.0
25/11:00pm 12.7 8.7 10.6 87 1.1 E 22 30 12 16 1021.4 1020.8 0.0
25/10:30pm 13.1 9.2 10.8 86 1.2 E 22 32 12 17 1021.5 1020.9 0.0
25/10:00pm 13.5 9.3 11.2 86 1.2 E 24 33 13 18 1021.5 1020.9 0.0
25/09:30pm 13.7 9.6 11.6 87 1.1 E 24 33 13 18 1021.5 1020.9 0.0
25/09:00pm 14.1 9.8 12.0 87 1.1 E 26 35 14 19 1021.4 1020.8 0.0
25/08:30pm 14.3 10.0 12.0 86 1.3 ESE 26 35 14 19 1021.4 1020.8 0.0
25/08:00pm 14.5 10.6 12.2 86 1.3 ESE 24 33 13 18 1021.3 1020.7 0.0
25/07:30pm 14.8 10.5 12.1 84 1.5 ESE 26 37 14 20 1021.4 1020.8 0.0
25/07:00pm 15.2 10.6 12.2 82 1.6 ESE 28 39 15 21 1021.4 1020.8 0.0
25/06:30pm 16.1 11.3 11.7 75 2.4 ESE 28 39 15 21 1021.3 1020.7 0.0
25/06:00pm 16.9 12.1 11.6 71 2.9 SE 28 41 15 22 1021.1 1020.5 0.0
25/05:30pm 18.4 13.1 11.2 63 4.0 ESE 30 46 16 25 1020.9 1020.3 0.0
25/05:00pm 19.3 13.6 11.3 60 4.4 SE 32 44 17 24 1020.6 1020.0 0.0
25/04:30pm 20.0 14.7 11.2 57 4.9 SE 30 39 16 21 1020.5 1019.9 0.0
25/04:00pm 21.0 16.1 11.3 54 5.4 SE 28 37 15 20 1020.5 1019.9 0.0
25/03:30pm 22.2 18.1 11.3 50 6.1 SE 24 39 13 21 1020.4 1019.8 0.0
25/03:00pm 24.6 20.4 11.2 43 7.6 ESE 24 37 13 20 1020.5 1019.9 0.0
25/02:30pm 25.4 21.4 10.4 39 8.4 SE 22 33 12 18 1020.6 1020.0 0.0
25/02:00pm 26.6 23.2 10.7 37 9.0 SE 19 30 10 16 1020.7 1020.1 0.0
25/01:30pm 26.3 23.9 8.8 33 9.6 E 11 24 6 13 1021.0 1020.4 0.0
25/01:00pm 24.9 22.4 8.4 35 8.9 ESE 11 22 6 12 1021.4 1020.8 0.0
25/12:30pm 25.1 22.9 9.4 37 8.7 ENE 11 19 6 10 1021.7 1021.1 0.0
25/12:00pm 23.6 20.8 8.5 38 8.1 E 13 20 7 11 1022.0 1021.4 0.0
25/11:30am 23.6 20.9 8.8 39 8.0 E 13 24 7 13 1022.3 1021.7 0.0
25/11:00am 23.9 20.9 9.1 39 8.0 ESE 15 30 8 16 1022.6 1022.1 0.0
25/10:30am 23.7 21.6 9.7 41 7.7 E 11 20 6 11 1023.0 1022.5 0.0
25/10:00am 20.9 18.3 9.2 47 6.3 ENE 13 24 7 13 1023.4 1022.9 0.0
25/09:30am 21.3 18.9 9.9 48 6.2 E 13 22 7 12 1023.5 1023.0 0.0
25/09:00am 20.5 16.9 10.0 51 5.7 ENE 19 26 10 14 1023.5 1023.0 0.0
25/08:30am 18.7 14.8 9.5 55 4.9 ENE 20 30 11 16 1023.8 1023.3 0.0
25/08:00am 17.7 13.9 9.8 60 4.2 ENE 20 28 11 15 1024.1 1023.6 0.0
25/07:30am 16.8 13.0 9.7 63 3.8 ENE 20 32 11 17 1024.2 1023.7 0.0
25/07:00am 15.4 10.7 9.3 67 3.2 ENE 24 33 13 18 1024.1 1023.6 0.0
25/06:30am 13.8 9.3 8.4 70 2.7 ENE 22 30 12 16 1024.0 1023.5 0.0
25/06:00am 12.0 7.9 7.9 76 2.0 ENE 19 26 10 14 1023.9 1023.4 0.0
25/05:30am 10.4 6.2 7.5 82 1.4 ENE 19 26 10 14 1023.5 1023.0 0.0
25/05:00am 9.6 5.8 7.4 86 1.1 ENE 17 20 9 11 1023.5 1023.0 0.0
25/04:30am 9.5 5.6 7.3 86 1.1 ENE 17 22 9 12 1023.3 1022.8 0.0
25/04:00am 9.5 5.6 7.3 86 1.0 ENE 17 20 9 11 1023.0 1022.5 0.0
25/03:30am 9.6 6.1 7.2 85 1.1 ENE 15 20 8 11 1023.1 1022.6 0.0
25/03:00am 9.7 5.8 7.3 85 1.1 ENE 17 20 9 11 1023.0 1022.5 0.0
25/02:30am 10.0 6.2 7.6 85 1.2 ENE 17 22 9 12 1023.0 1022.5 0.0
25/02:00am 9.7 6.7 7.6 87 1.0 ENE 13 17 7 9 1023.2 1022.7 0.0
25/01:30am 9.8 6.4 7.7 87 1.0 ENE 15 20 8 11 1023.2 1022.7 0.0
25/01:00am 9.9 6.2 7.8 87 1.0 E 17 19 9 10 1023.4 1022.9 0.0
25/12:30am 9.7 6.3 7.5 86 1.1 ENE 15 19 8 10 1023.6 1023.1 0.0
25/12:00am 9.9 6.9 7.7 86 1.1 E 13 17 7 9 1023.8 1023.3 0.0
 
Date/Time
WST
Temp
°C
App
Temp
°C
Dew
Point
Rel
Hum
%
Delta-T
°C
Wind Press
QNH
hPa
Press
MSL
hPa
Rain
since 9 am
mm
Dir
 
Spd
km/h
Gust
km/h
Spd
kts
Gust
kts
24/11:30pm 9.7 7.3 7.1 84 1.2 E 9 13 5 7 1024.1 1023.6 0.0
24/11:00pm 10.7 8.1 7.6 81 1.5 E 11 17 6 9 1024.3 1023.8 0.0
24/10:30pm 10.5 7.9 7.6 82 1.4 ESE 11 15 6 8 1024.6 1024.0 0.0
24/10:00pm 10.3 7.2 7.2 81 1.5 ESE 13 17 7 9 1024.5 1023.9 0.0
24/09:30pm 10.5 7.8 7.2 80 1.6 ESE 11 15 6 8 1024.7 1024.1 0.0
24/09:00pm 10.5 7.7 7.0 79 1.7 ESE 11 15 6 8 1024.6 1024.0 0.0
24/08:30pm 11.1 8.3 7.0 76 2.0 ESE 11 15 6 8 1024.2 1023.7 0.0
24/08:00pm 11.4 8.2 6.9 74 2.2 SE 13 17 7 9 1024.0 1023.5 0.0
24/07:30pm 12.0 8.8 6.9 71 2.5 SE 13 17 7 9 1023.9 1023.4 0.0
24/07:00pm 13.0 9.5 7.0 67 2.9 SSE 15 20 8 11 1023.7 1023.2 0.0
24/06:30pm 14.3 9.8 6.9 61 3.6 SSE 20 28 11 15 1023.3 1022.8 0.0
24/06:00pm 15.5 10.3 7.3 58 4.1 SE 24 30 13 16 1022.9 1022.4 0.0
24/05:30pm 17.0 12.8 7.4 53 4.9 SE 19 30 10 16 1022.6 1022.1 0.0
24/05:00pm 17.5 12.6 7.0 50 5.3 SSE 22 30 12 16 1022.3 1021.7 0.0
24/04:30pm 18.4 13.9 6.9 47 5.8 SSE 20 32 11 17 1022.1 1021.5 0.0
24/04:00pm 19.3 14.8 6.8 44 6.3 SE 20 33 11 18 1022.0 1021.4 0.0
24/03:30pm 19.7 15.4 6.8 43 6.6 SSE 19 32 10 17 1021.9 1021.3 0.0
24/03:00pm 20.2 15.4 7.2 43 6.7 SSE 22 33 12 18 1021.8 1021.2 0.0
24/02:30pm 21.2 16.8 7.4 41 7.2 SE 20 26 11 14 1021.9 1021.3 0.0
24/02:00pm 21.3 17.8 7.2 40 7.3 SE 15 32 8 17 1022.1 1021.5 0.0
24/01:30pm 21.4 18.3 7.3 40 7.3 SSE 13 26 7 14 1022.0 1021.4 0.0
24/01:00pm 20.9 17.7 6.8 40 7.2 ESE 13 22 7 12 1022.2 1021.6 0.0
24/12:30pm 21.0 18.3 7.3 41 7.1 SE 11 26 6 14 1022.4 1021.9 0.0

Other Formats:

Comma delimited format used in spreadsheet applications
http://www.bom.gov.au/fwo/IDW60801/IDW60801.95644.axf

JavaScript Object Notation format (JSON) in row-major order
http://www.bom.gov.au/fwo/IDW60801/IDW60801.95644.json